• Join FlightAware (Why Join?)
  • Login
  • US Flag 
02:21AM EDT


 

Airport Tracker/Info


-or-


 

Live Flight TrackerFlight Track Log ✈ CCA4298 ✈ 14-Jul-2013 ✈ ZUJZ / JZH - ZUCK / CKG

Flight Track Log - Related Links

Times and Time Zones

All times are in EDT time to prevent confusion due to time zone crossing. See the CCA4298 flight status page for this flight to view local times or setup timezone preferences in your user account.

Time Position Orientation Groundspeed Altitude Reporting Facility
EDT Latitude Longitude Course Direction KTS MPH feet Rate Location/Type
04:53AM 32.6531 103.8834 140° Southeast  Level Estimated
04:54AM 32.6021 103.9334 140° Southeast  Level Estimated
04:55AM 32.5511 103.9833 141° Southeast  Level Estimated
04:56AM 32.5000 104.0331 141° Southeast  Level Estimated
04:57AM 32.4490 104.0829 141° Southeast  Level Estimated
04:58AM 32.3979 104.1326 141° Southeast  Level Estimated
04:59AM 32.3468 104.1823 141° Southeast  Level Estimated
05:00AM 32.2956 104.2319 141° Southeast  Level Estimated
05:01AM 32.2445 104.2815 141° Southeast  Level Estimated
05:02AM 32.1933 104.3310 141° Southeast  Level Estimated
05:03AM 32.1421 104.3804 141° Southeast  Level Estimated
05:04AM 32.0909 104.4298 141° Southeast  Level Estimated
05:05AM 32.0397 104.4792 141° Southeast  Level Estimated
05:06AM 31.9884 104.5284 141° Southeast  Level Estimated
05:07AM 31.9372 104.5777 141° Southeast  Level Estimated
05:08AM 31.8859 104.6268 141° Southeast  Level Estimated
05:09AM 31.8346 104.6760 141° Southeast  Level Estimated
05:10AM 31.7833 104.7250 141° Southeast  Level Estimated
05:11AM 31.7319 104.7740 141° Southeast  Level Estimated
05:12AM 31.6805 104.8230 141° Southeast  Level Estimated
05:13AM 31.6292 104.8719 141° Southeast  Level Estimated
05:14AM 31.5778 104.9207 141° Southeast  Level Estimated
05:15AM 31.5264 104.9695 141° Southeast  Level Estimated
05:16AM 31.4749 105.0183 141° Southeast  Level Estimated
05:17AM 31.4235 105.0670 141° Southeast  Level Estimated
05:18AM 31.3720 105.1156 141° Southeast  Level Estimated
05:19AM 31.3205 105.1642 141° Southeast  Level Estimated
05:20AM 31.2690 105.2127 141° Southeast  Level Estimated
05:21AM 31.2175 105.2612 141° Southeast  Level Estimated
05:22AM 31.1659 105.3096 141° Southeast  Level Estimated
05:23AM 31.1143 105.3580 141° Southeast  Level Estimated
05:24AM 31.0628 105.4063 141° Southeast  Level Estimated
05:25AM 31.0112 105.4545 141° Southeast  Level Estimated
05:26AM 30.9596 105.5027 141° Southeast  Level Estimated
05:27AM 30.9079 105.5509 141° Southeast  Level Estimated
05:28AM 30.8563 105.5990 141° Southeast  Level Estimated
05:29AM 30.8046 105.6471 141° Southeast  Level Estimated
05:30AM 30.7529 105.6951 141° Southeast  Level Estimated
05:31AM 30.7012 105.7430 141° Southeast  Level Estimated
05:32AM 30.6495 105.7909 141° Southeast  Level Estimated
05:33AM 30.5977 105.8388 141° Southeast  Level Estimated
05:34AM 30.5460 105.8866 141° Southeast  Level Estimated
05:35AM 30.4942 105.9343 142° Southeast  Level Estimated
05:36AM 30.4424 105.9820 142° Southeast  Level Estimated
05:37AM 30.3906 106.0297 142° Southeast  Level Estimated
05:38AM 30.3388 106.0773 142° Southeast  Level Estimated
05:39AM 30.2869 106.1248 142° Southeast  Level Estimated
05:40AM 30.2351 106.1723 142° Southeast  Level Estimated
05:41AM 30.1832 106.2197 142° Southeast  Level Estimated
05:42AM 30.1313 106.2671 142° Southeast  Level Estimated
05:43AM 30.0794 106.3145 142° Southeast  Level Estimated
05:44AM 30.0274 106.3618 142° Southeast  Level Estimated
05:45AM 29.9755 106.4090 142° Southeast  Level Estimated
05:46AM 29.9235 106.4562 142° Southeast  Level Estimated
05:47AM 29.8715 106.5034 142° Southeast  Level Estimated
05:48AM 29.8195 106.5505 142° Southeast  Level Estimated
05:49AM 29.7675 106.5975 142° Southeast  Level Estimated
05:50AM 29.7194 106.6410 142° Southeast  Level Estimated
05:51AM 29.7194 106.6410 60° Northeast  Level Estimated
05:52AM 29.7194 106.6410 60° Northeast  Level Estimated
05:53AM 29.7194 106.6410 60° Northeast  Level Estimated
05:54AM 29.7194 106.6410 60° Northeast  Level Estimated
05:55AM 29.7194 106.6410 60° Northeast  Level Estimated
05:56AM 29.7194 106.6410 60° Northeast  Level Estimated
05:57AM 29.7194 106.6410 60° Northeast  Level Estimated
05:58AM 29.7194 106.6410 60° Northeast  Level Estimated